createdAt,value
2022-08-07T00:03:36.797Z,18.69
2022-08-07T00:07:20.016Z,18.71
2022-08-07T00:11:06.392Z,18.71
2022-08-07T00:14:49.269Z,18.73
2022-08-07T00:18:33.839Z,18.78
2022-08-07T00:22:24.399Z,18.81
2022-08-07T00:26:31.452Z,18.73
2022-08-07T00:30:27.525Z,18.70
2022-08-07T00:34:12.602Z,18.65
2022-08-07T00:37:58.247Z,18.69
2022-08-07T00:41:53.159Z,18.64
2022-08-07T00:45:36.774Z,18.64
2022-08-07T00:49:24.600Z,18.67
2022-08-07T00:53:24.105Z,18.64
2022-08-07T00:57:07.196Z,18.60
2022-08-07T01:00:54.024Z,18.59
2022-08-07T01:04:43.290Z,18.52
2022-08-07T01:08:26.785Z,18.49
2022-08-07T01:12:29.628Z,18.44
2022-08-07T01:16:13.479Z,18.41
2022-08-07T01:20:16.738Z,18.44
2022-08-07T01:24:03.080Z,18.40
2022-08-07T01:27:51.372Z,18.34
2022-08-07T01:31:42.472Z,18.33
2022-08-07T01:35:26.034Z,18.33
2022-08-07T01:39:41.279Z,18.38
2022-08-07T01:43:34.521Z,18.31
2022-08-07T01:48:20.223Z,18.27
2022-08-07T01:52:03.195Z,18.22
2022-08-07T01:55:33.436Z,18.17
2022-08-07T01:59:20.300Z,18.08
2022-08-07T02:03:19.334Z,18.04
2022-08-07T02:07:08.843Z,18.00
2022-08-07T02:10:55.437Z,17.94
2022-08-07T02:14:41.304Z,17.89
2022-08-07T02:18:25.901Z,17.82
2022-08-07T02:22:14.328Z,17.84
2022-08-07T02:26:31.412Z,17.85
2022-08-07T02:30:07.886Z,17.87
2022-08-07T02:34:04.103Z,17.89
2022-08-07T02:37:54.646Z,17.86
2022-08-07T02:41:39.296Z,17.79
2022-08-07T02:46:00.305Z,17.75
2022-08-07T02:49:57.877Z,17.70
2022-08-07T02:53:39.841Z,17.63
2022-08-07T02:57:24.080Z,17.59
2022-08-07T03:01:18.752Z,17.52
2022-08-07T03:05:20.783Z,17.46
2022-08-07T03:09:07.532Z,17.42
2022-08-07T03:12:56.018Z,17.39
2022-08-07T03:16:39.410Z,17.31
2022-08-07T03:20:25.313Z,17.31
2022-08-07T03:24:18.102Z,17.29
2022-08-07T03:28:37.675Z,17.24
2022-08-07T03:32:16.157Z,17.19
2022-08-07T03:36:00.124Z,17.13
2022-08-07T03:39:59.548Z,17.14
2022-08-07T03:43:56.743Z,17.15
2022-08-07T03:47:48.123Z,17.10
2022-08-07T03:51:47.389Z,17.04
2022-08-07T03:55:52.743Z,17.00
2022-08-07T03:59:35.078Z,16.95
2022-08-07T04:03:18.162Z,16.92
2022-08-07T04:07:07.765Z,16.94
2022-08-07T04:12:20.669Z,16.91
2022-08-07T04:15:05.174Z,16.92
2022-08-07T04:18:59.546Z,16.88
2022-08-07T04:22:53.464Z,16.85
2022-08-07T04:26:36.720Z,16.82
2022-08-07T04:30:21.494Z,16.81
2022-08-07T04:34:27.581Z,16.80
2022-08-07T04:38:16.520Z,16.84
2022-08-07T04:41:59.348Z,16.85
2022-08-07T04:46:00.955Z,16.85
2022-08-07T04:49:58.210Z,16.84
2022-08-07T04:54:05.632Z,16.83
2022-08-07T04:58:11.507Z,16.89
2022-08-07T05:02:03.656Z,16.98
2022-08-07T05:05:57.018Z,17.01
2022-08-07T05:09:46.157Z,17.06
2022-08-07T05:14:53.975Z,17.06
2022-08-07T05:17:52.123Z,17.07
2022-08-07T05:22:00.835Z,17.06
2022-08-07T05:26:12.872Z,17.14
2022-08-07T05:29:51.260Z,17.20
2022-08-07T05:33:38.270Z,17.20
2022-08-07T05:37:25.442Z,17.20
2022-08-07T05:41:14.431Z,17.23
2022-08-07T05:45:14.514Z,17.21
2022-08-07T05:49:12.197Z,17.26
2022-08-07T05:52:55.665Z,17.34
2022-08-07T05:56:40.943Z,17.35
2022-08-07T06:00:24.985Z,17.41
2022-08-07T06:04:10.499Z,17.45
2022-08-07T06:08:14.461Z,17.49
2022-08-07T06:11:56.857Z,17.58
2022-08-07T06:15:42.704Z,17.65
2022-08-07T06:19:58.113Z,17.69
2022-08-07T06:24:36.845Z,17.75
2022-08-07T06:27:44.094Z,17.86
2022-08-07T06:31:49.548Z,17.91
2022-08-07T06:35:39.127Z,17.98
2022-08-07T06:40:17.162Z,18.01
2022-08-07T06:43:39.602Z,18.11
2022-08-07T06:47:23.093Z,18.14
2022-08-07T06:51:15.695Z,18.11
2022-08-07T06:55:33.474Z,18.10
2022-08-07T07:00:12.088Z,18.13
2022-08-07T07:03:26.378Z,18.24
2022-08-07T07:07:59.999Z,18.36
2022-08-07T07:12:08.714Z,18.49
2022-08-07T07:15:35.882Z,18.69
2022-08-07T07:19:55.463Z,18.86
2022-08-07T07:24:08.950Z,19.02
2022-08-07T07:27:35.611Z,19.21
2022-08-07T07:31:44.591Z,19.42
2022-08-07T07:35:33.604Z,19.65
2022-08-07T07:39:35.824Z,19.88
2022-08-07T07:43:47.821Z,19.96
2022-08-07T07:47:52.003Z,20.16
2022-08-07T07:51:58.112Z,20.29
2022-08-07T07:55:45.715Z,20.38
2022-08-07T07:59:52.210Z,20.52
2022-08-07T08:04:09.986Z,20.73
2022-08-07T08:07:59.882Z,20.79
2022-08-07T08:11:59.835Z,20.90
2022-08-07T08:15:58.975Z,20.69
2022-08-07T08:20:17.365Z,20.43
2022-08-07T08:24:34.339Z,20.35
2022-08-07T08:28:37.340Z,20.01
2022-08-07T08:32:25.032Z,20.07
2022-08-07T08:36:10.149Z,20.22
2022-08-07T08:39:58.698Z,20.42
2022-08-07T08:43:50.464Z,20.58
2022-08-07T08:47:47.249Z,20.68
2022-08-07T08:52:00.939Z,20.78
2022-08-07T08:55:54.730Z,20.66
2022-08-07T08:59:50.317Z,20.73
2022-08-07T09:03:47.930Z,20.92
2022-08-07T09:07:46.285Z,21.08
2022-08-07T09:11:53.168Z,21.25
2022-08-07T09:16:23.251Z,21.32
2022-08-07T09:19:56.612Z,21.30
2022-08-07T09:24:32.048Z,21.36
2022-08-07T09:28:01.113Z,21.38
2022-08-07T09:31:56.430Z,21.44
2022-08-07T09:36:01.148Z,21.54
2022-08-07T09:39:53.902Z,21.61
2022-08-07T09:44:06.501Z,21.77
2022-08-07T09:48:08.799Z,21.85
2022-08-07T09:52:15.508Z,22.04
2022-08-07T09:56:37.510Z,22.18
2022-08-07T10:00:24.349Z,22.34
2022-08-07T10:04:32.436Z,22.45
2022-08-07T10:08:46.324Z,22.30
2022-08-07T10:12:52.562Z,22.30
2022-08-07T10:16:45.128Z,22.25
2022-08-07T10:20:38.484Z,21.99
2022-08-07T10:24:39.661Z,21.89
2022-08-07T10:28:36.118Z,21.86
2022-08-07T10:32:51.522Z,21.91
2022-08-07T10:36:45.781Z,21.94
2022-08-07T10:40:35.732Z,22.12
2022-08-07T10:44:28.692Z,22.17
2022-08-07T10:48:36.225Z,22.12
2022-08-07T10:52:31.766Z,22.22
2022-08-07T10:56:30.951Z,22.28
2022-08-07T11:00:36.676Z,22.32
2022-08-07T11:04:37.594Z,22.26
2022-08-07T11:08:38.989Z,22.40
2022-08-07T11:12:32.068Z,22.33
2022-08-07T11:16:21.776Z,22.14
2022-08-07T11:20:17.130Z,22.03
2022-08-07T11:24:05.652Z,21.97
2022-08-07T11:28:01.231Z,21.81
2022-08-07T11:31:52.905Z,21.58
2022-08-07T11:35:59.219Z,21.48
2022-08-07T11:39:59.946Z,21.58
2022-08-07T11:44:11.202Z,21.69
2022-08-07T11:48:13.752Z,21.72
2022-08-07T11:52:14.970Z,21.83
2022-08-07T11:56:26.743Z,21.98
2022-08-07T12:00:19.084Z,22.05
2022-08-07T12:04:17.291Z,22.09
2022-08-07T12:08:04.457Z,22.24
2022-08-07T12:12:09.219Z,22.43
2022-08-07T12:16:06.901Z,22.51
2022-08-07T12:19:56.347Z,22.62
2022-08-07T12:24:05.463Z,22.76
2022-08-07T12:28:09.741Z,22.88
2022-08-07T12:32:03.813Z,23.07
2022-08-07T12:35:57.836Z,23.25
2022-08-07T12:39:50.935Z,23.41
2022-08-07T12:44:02.137Z,23.51
2022-08-07T12:47:44.116Z,23.61
2022-08-07T12:51:33.436Z,23.63
2022-08-07T12:55:40.859Z,23.70
2022-08-07T12:59:33.219Z,23.84
2022-08-07T13:04:00.559Z,24.01
2022-08-07T13:08:12.845Z,24.26
2022-08-07T13:12:09.934Z,24.53
2022-08-07T13:16:02.056Z,24.74
2022-08-07T13:19:51.995Z,24.76
2022-08-07T13:24:00.662Z,24.82
2022-08-07T13:28:10.861Z,24.93
2022-08-07T13:32:06.277Z,25.21
2022-08-07T13:36:08.791Z,25.52
2022-08-07T13:40:36.187Z,25.71
2022-08-07T13:44:26.032Z,25.94
2022-08-07T13:48:27.376Z,26.19
2022-08-07T13:52:30.535Z,26.26
2022-08-07T13:56:19.087Z,26.27
2022-08-07T14:00:03.817Z,26.45
2022-08-07T14:04:07.464Z,26.59
2022-08-07T14:08:00.769Z,26.94
2022-08-07T14:11:53.767Z,27.22
2022-08-07T14:15:45.153Z,27.40
2022-08-07T14:20:42.283Z,27.33
2022-08-07T14:24:00.064Z,27.39
2022-08-07T14:28:10.273Z,27.56
2022-08-07T14:31:56.642Z,27.69
2022-08-07T14:35:58.767Z,27.67
2022-08-07T14:40:16.077Z,27.29
2022-08-07T14:43:59.199Z,27.10
2022-08-07T14:47:51.247Z,27.10
2022-08-07T14:52:02.907Z,27.18
2022-08-07T14:55:55.831Z,27.00
2022-08-07T15:00:04.979Z,26.96
2022-08-07T15:03:52.628Z,26.74
2022-08-07T15:11:50.929Z,26.49
2022-08-07T15:15:40.615Z,26.59
2022-08-07T15:20:30.185Z,26.67
2022-08-07T15:25:03.975Z,26.80
2022-08-07T15:27:35.862Z,26.74
2022-08-07T15:32:01.218Z,26.88
2022-08-07T15:36:00.587Z,26.98
2022-08-07T15:39:57.508Z,27.35
2022-08-07T15:48:01.422Z,27.43
2022-08-07T15:55:53.606Z,26.78
2022-08-07T15:59:46.780Z,26.64
2022-08-07T16:03:47.371Z,26.69
2022-08-07T16:08:31.125Z,26.60
2022-08-07T16:12:00.077Z,26.42
2022-08-07T16:15:57.978Z,26.12
2022-08-07T16:20:04.017Z,25.88
2022-08-07T16:23:58.633Z,25.66
2022-08-07T16:27:57.213Z,25.47
2022-08-07T16:31:51.545Z,25.40
2022-08-07T16:35:51.841Z,25.29
2022-08-07T16:40:23.410Z,24.92
2022-08-07T16:45:19.135Z,24.76
2022-08-07T16:50:27.751Z,24.62
2022-08-07T16:54:02.413Z,24.35
2022-08-07T16:58:02.156Z,23.98
2022-08-07T17:01:50.556Z,23.77
2022-08-07T17:06:19.412Z,23.68
2022-08-07T17:10:07.381Z,23.55
2022-08-07T17:14:19.640Z,23.35
2022-08-07T17:18:14.295Z,23.03
2022-08-07T17:22:07.108Z,22.73
2022-08-07T17:26:23.618Z,22.51
2022-08-07T17:30:19.995Z,22.46
2022-08-07T17:34:34.808Z,22.44
2022-08-07T17:38:33.725Z,22.21
2022-08-07T17:42:29.639Z,22.12
2022-08-07T17:46:17.914Z,21.93
2022-08-07T17:50:02.528Z,21.75
2022-08-07T17:54:01.099Z,21.66
2022-08-07T17:57:58.909Z,21.59
2022-08-07T18:01:57.424Z,21.51
2022-08-07T18:06:02.673Z,21.40
2022-08-07T18:10:07.301Z,21.36
2022-08-07T18:14:01.509Z,21.36
2022-08-07T18:18:45.763Z,21.24
2022-08-07T18:22:03.655Z,21.20
2022-08-07T18:25:50.716Z,21.10
2022-08-07T18:30:05.929Z,21.00
2022-08-07T18:34:37.111Z,20.89
2022-08-07T18:38:55.492Z,20.75
2022-08-07T18:42:30.355Z,20.70
2022-08-07T18:46:27.533Z,20.65
2022-08-07T18:50:39.088Z,20.62
2022-08-07T18:54:34.587Z,20.52
2022-08-07T18:58:51.151Z,20.42
2022-08-07T19:02:42.580Z,20.35
2022-08-07T19:06:33.701Z,20.28
2022-08-07T19:10:21.335Z,20.21
2022-08-07T19:14:20.233Z,20.18
2022-08-07T19:18:16.042Z,20.12
2022-08-07T19:22:05.210Z,20.06
2022-08-07T19:26:23.264Z,20.01
2022-08-07T19:31:00.138Z,19.96
2022-08-07T19:34:02.534Z,19.92
2022-08-07T19:37:55.361Z,19.91
2022-08-07T19:41:44.580Z,19.92
2022-08-07T19:46:06.154Z,19.95
2022-08-07T19:49:56.684Z,19.95
2022-08-07T19:54:34.052Z,19.94
2022-08-07T19:58:12.887Z,19.89
2022-08-07T20:01:58.093Z,19.81
2022-08-07T20:06:00.692Z,19.76
2022-08-07T20:10:38.024Z,19.74
2022-08-07T20:13:53.472Z,19.76
2022-08-07T20:17:38.675Z,19.76
2022-08-07T20:21:22.706Z,19.78
2022-08-07T20:25:12.967Z,19.80
2022-08-07T20:29:10.715Z,19.82
2022-08-07T20:33:24.239Z,19.78
2022-08-07T20:37:15.271Z,19.79
2022-08-07T20:41:03.625Z,19.77
2022-08-07T20:44:50.020Z,19.72
2022-08-07T20:48:35.682Z,19.65
2022-08-07T20:52:21.095Z,19.55
2022-08-07T20:56:13.677Z,19.54
2022-08-07T21:00:08.381Z,19.54
2022-08-07T21:04:18.776Z,19.64
2022-08-07T21:08:00.895Z,19.75
2022-08-07T21:11:51.550Z,19.75
2022-08-07T21:15:58.435Z,19.86
2022-08-07T21:19:51.696Z,19.80
2022-08-07T21:23:51.596Z,19.76
2022-08-07T21:27:39.861Z,19.80
2022-08-07T21:32:42.465Z,19.86
2022-08-07T21:36:04.999Z,19.77
2022-08-07T21:39:54.819Z,19.74
2022-08-07T21:43:55.290Z,19.74
2022-08-07T21:47:50.258Z,19.67
2022-08-07T21:51:51.403Z,19.59
2022-08-07T21:55:42.732Z,19.52
2022-08-07T22:00:02.907Z,19.39
2022-08-07T22:03:42.175Z,19.30
2022-08-07T22:07:31.717Z,19.27
2022-08-07T22:12:05.766Z,19.25
2022-08-07T22:16:42.597Z,19.26
2022-08-07T22:20:02.576Z,19.25
2022-08-07T22:23:53.409Z,19.27
2022-08-07T22:28:08.349Z,19.26
2022-08-07T22:32:05.359Z,19.23
2022-08-07T22:35:56.099Z,19.12
2022-08-07T22:39:53.554Z,19.07
2022-08-07T22:43:39.917Z,19.02
2022-08-07T22:47:32.985Z,18.95
2022-08-07T22:51:57.431Z,18.91
2022-08-07T22:55:49.514Z,18.88
2022-08-07T22:59:45.076Z,18.85
2022-08-07T23:03:59.013Z,18.80
2022-08-07T23:07:53.915Z,18.74
2022-08-07T23:11:52.898Z,18.69
2022-08-07T23:16:05.363Z,18.71
2022-08-07T23:20:51.224Z,18.70
2022-08-07T23:24:38.661Z,18.65
2022-08-07T23:28:56.410Z,18.59
2022-08-07T23:34:22.836Z,18.51
2022-08-07T23:37:36.764Z,18.50
2022-08-07T23:42:04.766Z,18.47
2022-08-07T23:46:03.121Z,18.46
2022-08-07T23:50:04.896Z,18.44
2022-08-07T23:53:53.413Z,18.42
2022-08-07T23:57:40.818Z,18.41
